Time;durP1;ratioP1;P1;durP2;ratioP2;P2;SDS_P1;SDS_P2;PMS_P1;PMS_P2;Temp;Humidity;BMP_temperature;BMP_pressure;BME280_temperature;BME280_humidity;BME280_pressure;Samples;Min_cycle;Max_cycle;Signal;HPM_P1;HPM_P2
2022/07/25 00:02:25;;;;;;;7.95;3.97;;;22.20;99.90;;;;;;5020410;28;20084;-77
2022/07/25 00:04:51;;;;;;;5.45;4.05;;;22.20;99.90;;;;;;5020073;28;20038;-77
2022/07/25 00:07:16;;;;;;;4.60;3.72;;;22.20;99.90;;;;;;5022152;28;20437;-76
2022/07/25 00:09:42;;;;;;;5.38;4.10;;;22.20;99.90;;;;;;5029247;28;20037;-77
2022/07/25 00:12:08;;;;;;;7.90;4.43;;;22.10;99.90;;;;;;5034467;28;20389;-77
2022/07/25 00:14:33;;;;;;;7.13;4.28;;;22.10;99.90;;;;;;5037080;28;20432;-77
2022/07/25 00:16:59;;;;;;;6.22;4.25;;;22.10;99.90;;;;;;5031742;28;20512;-77
2022/07/25 00:19:24;;;;;;;7.32;4.30;;;22.10;99.90;;;;;;5037218;28;20037;-77
2022/07/25 00:21:50;;;;;;;6.38;4.80;;;22.00;99.90;;;;;;5036183;28;20418;-77
2022/07/25 00:24:16;;;;;;;7.07;4.80;;;22.00;99.90;;;;;;5029924;28;20063;-77
2022/07/25 00:26:42;;;;;;;6.97;4.70;;;22.00;99.90;;;;;;5021299;28;20088;-77
2022/07/25 00:29:07;;;;;;;8.93;5.18;;;22.00;99.90;;;;;;5047338;28;20395;-77
2022/07/25 00:31:33;;;;;;;5.85;4.97;;;22.00;99.90;;;;;;5010284;28;20042;-78
2022/07/25 00:33:58;;;;;;;8.50;4.68;;;22.00;99.90;;;;;;5019159;28;20184;-78
2022/07/25 00:36:24;;;;;;;9.13;5.13;;;21.90;99.90;;;;;;5027679;28;20052;-77
2022/07/25 00:38:50;;;;;;;7.32;5.32;;;21.90;99.90;;;;;;5031416;28;20048;-78
2022/07/25 00:41:16;;;;;;;7.15;5.43;;;21.90;99.90;;;;;;5027490;28;20041;-78
2022/07/25 00:43:43;;;;;;;7.00;5.43;;;21.80;99.90;;;;;;5033031;28;20052;-78
2022/07/25 00:46:15;;;;;;;7.85;5.45;;;21.80;99.90;;;;;;5019853;28;20053;-78
2022/07/25 00:48:40;;;;;;;;;;;21.80;99.90;;;;;;5027703;28;20038;-77
2022/07/25 00:51:10;;;;;;;7.40;5.25;;;21.80;99.90;;;;;;5029534;28;19955;-77
2022/07/25 00:53:37;;;;;;;8.20;5.65;;;21.80;99.90;;;;;;5025729;28;20059;-78
2022/07/25 00:56:04;;;;;;;8.07;5.45;;;21.80;99.90;;;;;;5028842;28;20038;-77
2022/07/25 00:58:30;;;;;;;6.88;6.18;;;21.80;99.90;;;;;;5036763;28;20041;-77
2022/07/25 01:00:56;;;;;;;7.45;5.78;;;21.70;99.90;;;;;;5024526;28;20072;-77
2022/07/25 01:03:22;;;;;;;9.18;5.88;;;21.70;99.90;;;;;;5019349;28;20479;-77
2022/07/25 01:05:49;;;;;;;7.53;5.60;;;21.70;99.90;;;;;;5017908;28;20567;-77
2022/07/25 01:08:17;;;;;;;14.13;6.40;;;21.70;99.90;;;;;;5028746;28;20422;-77
2022/07/25 01:10:43;;;;;;;7.30;5.93;;;21.70;99.90;;;;;;5019929;28;20037;-77
2022/07/25 01:13:09;;;;;;;10.13;7.03;;;21.70;99.90;;;;;;5038366;28;20037;-77
2022/07/25 01:15:35;;;;;;;8.63;6.95;;;21.60;99.90;;;;;;5032988;28;20060;-77
2022/07/25 01:18:00;;;;;;;8.52;6.80;;;21.60;99.90;;;;;;5011095;28;20038;-77
2022/07/25 01:20:28;;;;;;;8.93;6.80;;;21.70;99.90;;;;;;5032808;28;20045;-77
2022/07/25 01:22:55;;;;;;;9.75;7.35;;;21.60;99.90;;;;;;5024310;28;20068;-77
2022/07/25 01:25:21;;;;;;;9.85;7.30;;;21.70;99.90;;;;;;4998157;28;20034;-77
2022/07/25 01:27:48;;;;;;;10.27;7.45;;;21.60;99.90;;;;;;5020999;28;20100;-77
2022/07/25 01:30:15;;;;;;;10.95;7.13;;;21.60;99.90;;;;;;5042938;28;20037;-77
2022/07/25 01:32:42;;;;;;;10.82;7.57;;;21.60;99.90;;;;;;5031147;28;20064;-77
2022/07/25 01:35:09;;;;;;;11.38;8.52;;;21.60;99.90;;;;;;5023898;28;20137;-77
2022/07/25 01:37:35;;;;;;;11.73;7.90;;;21.60;99.90;;;;;;5026528;28;20095;-77
2022/07/25 01:40:01;;;;;;;9.98;8.25;;;21.60;99.90;;;;;;5023511;28;20080;-77
2022/07/25 01:42:27;;;;;;;9.68;8.50;;;21.50;99.90;;;;;;5024382;28;20073;-77
2022/07/25 01:44:53;;;;;;;12.52;8.80;;;21.50;99.90;;;;;;5027905;28;20053;-77
2022/07/25 01:47:19;;;;;;;13.55;8.07;;;21.50;99.90;;;;;;5028182;28;20092;-77
2022/07/25 01:49:44;;;;;;;11.15;8.27;;;21.50;99.90;;;;;;5025899;28;20033;-77
2022/07/25 01:52:11;;;;;;;10.27;8.50;;;21.50;99.90;;;;;;5025821;28;20038;-77
2022/07/25 01:54:40;;;;;;;12.43;8.80;;;21.40;99.90;;;;;;5026437;28;20037;-77
2022/07/25 01:57:09;;;;;;;13.50;8.70;;;21.40;99.90;;;;;;5041729;28;20041;-77
2022/07/25 01:59:39;;;;;;;11.48;9.30;;;21.40;99.90;;;;;;5037015;28;20044;-77
2022/07/25 02:02:06;;;;;;;10.52;8.93;;;21.40;99.90;;;;;;5023114;28;20045;-77
2022/07/25 02:04:32;;;;;;;12.02;9.75;;;21.40;99.90;;;;;;5036407;28;20041;-77
2022/07/25 02:06:58;;;;;;;9.95;8.43;;;21.40;99.90;;;;;;5025291;28;20037;-77
2022/07/25 02:09:23;;;;;;;12.82;9.52;;;21.40;99.90;;;;;;5024597;28;20033;-77
2022/07/25 02:11:49;;;;;;;11.82;9.43;;;21.40;99.90;;;;;;5032419;28;20043;-77
2022/07/25 02:14:15;;;;;;;11.73;9.30;;;21.30;99.90;;;;;;5028354;28;20048;-77
2022/07/25 02:16:40;;;;;;;12.60;9.00;;;21.20;99.90;;;;;;5028662;28;20042;-77
2022/07/25 02:19:06;;;;;;;12.80;9.73;;;21.30;99.90;;;;;;5015850;28;20379;-77
2022/07/25 02:21:31;;;;;;;11.30;9.10;;;21.30;99.90;;;;;;5032373;28;20092;-77
2022/07/25 02:23:57;;;;;;;12.68;9.10;;;21.20;99.90;;;;;;5018048;28;20128;-77
2022/07/25 02:26:23;;;;;;;10.43;9.20;;;21.20;99.90;;;;;;5025016;28;20049;-77
2022/07/25 02:28:49;;;;;;;11.65;9.20;;;21.20;99.90;;;;;;5020659;28;20049;-77
2022/07/25 02:31:15;;;;;;;10.32;9.15;;;21.20;99.90;;;;;;5027739;28;20073;-77
2022/07/25 02:33:41;;;;;;;10.45;9.00;;;21.20;99.90;;;;;;5031207;28;20038;-77
2022/07/25 02:36:07;;;;;;;15.43;10.02;;;21.20;99.90;;;;;;5018398;28;20051;-78
2022/07/25 02:38:33;;;;;;;10.93;8.88;;;21.20;99.90;;;;;;5037139;28;20059;-77
2022/07/25 02:40:59;;;;;;;11.15;9.40;;;21.20;99.90;;;;;;5037984;28;20041;-78
2022/07/25 02:43:25;;;;;;;11.02;9.68;;;21.20;99.90;;;;;;5037679;28;20121;-77
2022/07/25 02:45:50;;;;;;;10.95;9.13;;;21.20;99.90;;;;;;5034192;28;20081;-78
2022/07/25 02:48:16;;;;;;;14.32;10.18;;;21.20;99.90;;;;;;5015506;28;20037;-77
2022/07/25 02:50:42;;;;;;;13.00;9.82;;;21.20;99.90;;;;;;5031177;28;20498;-77
2022/07/25 02:53:07;;;;;;;17.75;10.65;;;21.10;99.90;;;;;;5037941;28;20044;-77
2022/07/25 02:55:33;;;;;;;11.18;9.30;;;21.10;99.90;;;;;;5033744;28;20041;-77
2022/07/25 02:57:59;;;;;;;12.98;10.82;;;21.10;99.90;;;;;;5024979;28;20068;-77
2022/07/25 03:00:24;;;;;;;11.45;9.48;;;21.10;99.90;;;;;;5031548;28;20042;-77
2022/07/25 03:02:50;;;;;;;14.05;9.77;;;21.10;99.90;;;;;;5008922;28;20521;-77
2022/07/25 03:05:16;;;;;;;12.85;9.60;;;21.10;99.90;;;;;;5026085;28;20368;-77
2022/07/25 03:07:43;;;;;;;13.93;10.18;;;21.00;99.90;;;;;;5022601;28;20124;-77
2022/07/25 03:10:10;;;;;;;13.35;9.23;;;21.00;99.90;;;;;;5029413;28;20039;-77
2022/07/25 03:12:37;;;;;;;11.00;9.25;;;21.00;99.90;;;;;;5015108;28;20045;-77
2022/07/25 03:15:03;;;;;;;14.23;10.50;;;21.00;99.90;;;;;;5028344;28;20045;-77
2022/07/25 03:17:29;;;;;;;11.52;9.73;;;21.00;99.90;;;;;;5017422;28;20037;-77
2022/07/25 03:19:59;;;;;;;13.50;9.88;;;21.00;99.90;;;;;;5026655;28;20045;-77
2022/07/25 03:22:25;;;;;;;12.30;9.93;;;21.00;99.90;;;;;;5023670;28;20044;-78
2022/07/25 03:24:52;;;;;;;12.18;9.70;;;21.00;99.90;;;;;;5015462;28;20073;-77
2022/07/25 03:27:18;;;;;;;16.10;10.02;;;20.90;99.90;;;;;;5024943;28;20091;-76
2022/07/25 03:29:43;;;;;;;11.80;10.05;;;21.00;99.90;;;;;;5025910;28;20041;-76
2022/07/25 03:32:09;;;;;;;11.48;10.18;;;21.00;99.90;;;;;;5022119;28;20033;-78
2022/07/25 03:34:35;;;;;;;12.80;10.23;;;21.00;99.90;;;;;;5026059;28;20071;-76
2022/07/25 03:37:02;;;;;;;12.02;10.02;;;20.90;99.90;;;;;;5023376;28;20030;-78
2022/07/25 03:39:28;;;;;;;14.38;10.05;;;20.90;99.90;;;;;;5019732;28;20632;-78
2022/07/25 03:41:55;;;;;;;11.55;9.88;;;20.90;99.90;;;;;;5020596;28;20052;-77
2022/07/25 03:44:22;;;;;;;13.18;10.70;;;20.80;99.90;;;;;;5030738;28;20067;-77
2022/07/25 03:46:47;;;;;;;12.45;10.02;;;20.80;99.90;;;;;;5013304;28;20079;-78
2022/07/25 03:49:13;;;;;;;12.25;10.23;;;20.80;99.90;;;;;;5036298;28;20069;-79
2022/07/25 03:51:39;;;;;;;12.48;10.40;;;20.80;99.90;;;;;;5032853;28;20030;-78
2022/07/25 03:54:05;;;;;;;16.15;10.48;;;20.80;99.90;;;;;;5019158;28;20038;-78
2022/07/25 03:56:36;;;;;;;11.77;10.40;;;20.70;99.90;;;;;;5030703;28;20097;-76
2022/07/25 03:59:04;;;;;;;12.70;10.47;;;20.70;99.90;;;;;;5024610;28;20148;-75
2022/07/25 04:01:29;;;;;;;12.05;10.75;;;20.70;99.90;;;;;;5025364;28;20034;-76
2022/07/25 04:03:55;;;;;;;13.10;10.98;;;20.70;99.90;;;;;;5023271;28;20444;-76
2022/07/25 04:06:22;;;;;;;15.65;11.70;;;20.60;99.90;;;;;;5026077;28;20533;-76
2022/07/25 04:08:48;;;;;;;17.00;12.40;;;20.60;99.90;;;;;;5022285;28;20128;-76
2022/07/25 04:11:15;;;;;;;16.63;13.07;;;20.60;99.90;;;;;;5027677;28;20125;-75
2022/07/25 04:13:42;;;;;;;14.23;12.43;;;20.60;99.90;;;;;;5016010;28;20693;-77
2022/07/25 04:16:09;;;;;;;14.98;12.68;;;20.60;99.90;;;;;;5023328;28;20052;-76
2022/07/25 04:18:34;;;;;;;13.48;12.07;;;20.60;99.90;;;;;;5022138;28;20037;-76
2022/07/25 04:21:01;;;;;;;14.27;12.40;;;20.60;99.90;;;;;;5023683;28;20116;-76
2022/07/25 04:23:27;;;;;;;15.52;13.25;;;20.60;99.90;;;;;;5022796;28;20447;-76
2022/07/25 04:25:54;;;;;;;16.73;12.55;;;20.60;99.90;;;;;;5014682;28;20037;-76
2022/07/25 04:28:19;;;;;;;15.63;12.68;;;20.70;99.90;;;;;;5006912;28;20041;-77
2022/07/25 04:30:45;;;;;;;14.75;12.55;;;20.70;99.90;;;;;;5023181;28;20052;-76
2022/07/25 04:33:11;;;;;;;16.23;12.32;;;20.70;99.90;;;;;;5019745;28;20544;-76
2022/07/25 04:35:37;;;;;;;14.90;11.80;;;20.70;99.90;;;;;;5017358;28;20048;-76
2022/07/25 04:38:03;;;;;;;16.10;12.75;;;20.70;99.90;;;;;;5021282;28;20370;-76
2022/07/25 04:40:29;;;;;;;16.63;12.90;;;20.70;99.90;;;;;;5002714;28;20044;-76
2022/07/25 04:42:55;;;;;;;16.63;12.18;;;20.70;99.90;;;;;;5006762;28;20046;-75
2022/07/25 04:45:20;;;;;;;15.35;13.30;;;20.70;99.90;;;;;;5028270;28;20069;-73
2022/07/25 04:47:46;;;;;;;17.17;13.43;;;20.80;99.90;;;;;;5020266;28;20067;-77
2022/07/25 04:50:12;;;;;;;14.77;12.93;;;20.70;99.90;;;;;;5017252;28;20038;-77
2022/07/25 04:52:38;;;;;;;18.05;12.70;;;20.80;99.90;;;;;;5012815;28;20068;-77
2022/07/25 04:55:04;;;;;;;17.65;13.77;;;20.80;99.90;;;;;;5016885;28;20499;-77
2022/07/25 04:57:30;;;;;;;15.57;12.63;;;20.80;99.90;;;;;;5013883;28;20061;-77
2022/07/25 04:59:57;;;;;;;13.85;12.15;;;20.90;99.90;;;;;;5021611;28;20550;-77
2022/07/25 05:02:26;;;;;;;16.27;13.38;;;20.90;99.90;;;;;;5022767;28;20490;-76
2022/07/25 05:04:51;;;;;;;17.08;13.13;;;21.00;99.90;;;;;;5029407;28;20501;-76
2022/07/25 05:07:17;;;;;;;15.85;12.70;;;21.10;99.90;;;;;;5012548;28;20076;-75
2022/07/25 05:09:43;;;;;;;16.77;14.15;;;21.10;99.90;;;;;;5021083;28;20556;-76
2022/07/25 05:12:09;;;;;;;16.98;12.77;;;21.10;99.90;;;;;;5030454;28;20048;-76
2022/07/25 05:14:34;;;;;;;16.33;13.55;;;21.10;99.90;;;;;;5011886;28;20037;-76
2022/07/25 05:17:00;;;;;;;18.00;13.25;;;21.20;99.90;;;;;;5033755;28;20037;-76
2022/07/25 05:19:25;;;;;;;14.15;12.35;;;21.20;99.90;;;;;;5040112;28;20486;-79
2022/07/25 05:21:51;;;;;;;17.95;13.40;;;21.20;99.90;;;;;;5026075;28;20204;-75
2022/07/25 05:24:17;;;;;;;16.95;14.18;;;21.30;99.90;;;;;;5020539;28;20088;-75
2022/07/25 05:26:43;;;;;;;17.35;13.40;;;21.30;99.90;;;;;;5026808;28;20035;-75
2022/07/25 05:29:09;;;;;;;15.82;13.48;;;21.30;99.90;;;;;;5017343;28;20038;-77
2022/07/25 05:31:35;;;;;;;15.48;12.07;;;21.40;99.90;;;;;;5016821;28;20039;-75
2022/07/25 05:34:05;;;;;;;21.42;13.23;;;21.40;99.90;;;;;;5013705;28;20475;-77
2022/07/25 05:36:32;;;;;;;15.95;13.07;;;21.40;99.90;;;;;;5002302;28;20077;-76
2022/07/25 05:38:58;;;;;;;16.98;14.15;;;21.50;99.90;;;;;;5009252;28;20042;-78
2022/07/25 05:41:23;;;;;;;15.23;13.23;;;21.50;99.90;;;;;;5018309;28;20043;-78
2022/07/25 05:43:49;;;;;;;16.00;13.82;;;21.50;99.90;;;;;;5031583;28;20037;-78
2022/07/25 05:46:15;;;;;;;17.25;14.32;;;21.50;99.90;;;;;;5021427;28;20033;-77
2022/07/25 05:48:41;;;;;;;20.25;13.30;;;21.50;99.90;;;;;;5027322;28;20041;-79
2022/07/25 05:51:07;;;;;;;15.80;13.35;;;21.50;99.90;;;;;;5019989;28;20481;-77
2022/07/25 05:53:33;;;;;;;17.88;13.82;;;21.50;99.90;;;;;;5006950;28;20080;-77
2022/07/25 05:55:59;;;;;;;15.10;12.75;;;21.60;99.90;;;;;;5021246;28;20030;-77
2022/07/25 05:58:24;;;;;;;16.10;13.00;;;21.60;99.90;;;;;;5024757;28;20073;-77
2022/07/25 06:00:51;;;;;;;16.00;13.15;;;21.70;99.90;;;;;;5026821;28;20041;-77
2022/07/25 06:03:17;;;;;;;16.52;13.65;;;21.70;99.90;;;;;;5026023;28;20049;-77
2022/07/25 06:05:45;;;;;;;16.75;13.20;;;21.70;99.90;;;;;;5006059;28;20080;-76
2022/07/25 06:08:12;;;;;;;17.02;12.80;;;21.70;99.90;;;;;;5020363;28;20041;-76
2022/07/25 06:10:38;;;;;;;15.55;13.13;;;21.80;99.90;;;;;;5016087;28;20417;-77
2022/07/25 06:13:04;;;;;;;15.05;13.55;;;21.90;99.90;;;;;;5016328;28;20121;-77
2022/07/25 06:15:30;;;;;;;15.43;12.25;;;21.90;99.90;;;;;;5015811;28;20501;-77
2022/07/25 06:17:56;;;;;;;17.42;13.50;;;21.90;99.90;;;;;;5023982;28;20124;-77
2022/07/25 06:20:22;;;;;;;18.23;13.90;;;21.90;99.90;;;;;;5028637;28;20034;-76
2022/07/25 06:22:47;;;;;;;14.20;12.18;;;22.00;99.90;;;;;;5027969;28;20051;-78
2022/07/25 06:25:14;;;;;;;17.67;12.50;;;22.00;99.90;;;;;;5012148;28;20046;-76
2022/07/25 06:27:40;;;;;;;17.75;12.25;;;22.10;99.90;;;;;;5010213;28;20050;-76
2022/07/25 06:30:07;;;;;;;15.25;12.82;;;22.10;99.90;;;;;;5020441;28;20041;-76
2022/07/25 06:32:33;;;;;;;15.52;12.50;;;22.10;99.90;;;;;;5010055;28;20564;-77
2022/07/25 06:34:58;;;;;;;15.57;11.80;;;22.20;99.90;;;;;;5013423;28;20069;-76
2022/07/25 06:37:25;;;;;;;13.88;11.55;;;22.20;99.90;;;;;;5015243;28;20041;-76
2022/07/25 06:39:50;;;;;;;14.20;11.48;;;22.30;99.90;;;;;;5013786;28;20484;-78
2022/07/25 06:42:20;;;;;;;14.07;11.55;;;22.30;99.90;;;;;;5025157;28;20047;-78
2022/07/25 06:44:47;;;;;;;13.90;10.93;;;22.40;99.90;;;;;;5025660;28;20041;-79
2022/07/25 06:47:13;;;;;;;14.13;11.30;;;22.40;99.90;;;;;;5009093;28;20045;-79
2022/07/25 06:49:40;;;;;;;12.25;10.63;;;22.50;99.90;;;;;;5023400;28;20037;-79
2022/07/25 06:52:07;;;;;;;14.27;11.23;;;22.60;99.90;;;;;;5025958;28;20037;-78
2022/07/25 06:54:33;;;;;;;10.88;9.73;;;22.70;99.90;;;;;;5027292;28;20413;-79
2022/07/25 06:56:59;;;;;;;14.32;10.60;;;22.70;99.90;;;;;;5027996;28;20038;-79
2022/07/25 06:59:25;;;;;;;12.18;9.60;;;22.80;99.90;;;;;;5033396;28;20072;-79
2022/07/25 07:01:50;;;;;;;14.55;9.85;;;22.90;99.90;;;;;;5028787;28;20041;-80
2022/07/25 07:04:16;;;;;;;12.45;8.63;;;22.90;99.90;;;;;;5004417;28;20056;-79
2022/07/25 07:06:42;;;;;;;12.30;9.05;;;23.00;99.90;;;;;;5033674;28;20069;-78
2022/07/25 07:09:09;;;;;;;10.48;8.75;;;23.10;99.90;;;;;;5010120;28;20448;-79
2022/07/25 07:11:34;;;;;;;10.88;9.43;;;23.10;99.90;;;;;;5033097;28;20025;-77
2022/07/25 07:14:04;;;;;;;13.77;10.57;;;23.20;99.90;;;;;;5050786;28;20042;-78
2022/07/25 07:16:30;;;;;;;13.15;10.20;;;23.20;99.90;;;;;;5028044;28;20485;-78
2022/07/25 07:18:57;;;;;;;13.88;10.60;;;23.30;99.90;;;;;;5019772;28;20448;-78
2022/07/25 07:21:23;;;;;;;14.73;10.90;;;23.30;99.90;;;;;;5029054;28;20494;-78
2022/07/25 07:23:50;;;;;;;12.20;10.73;;;23.30;99.90;;;;;;5019453;28;20038;-78
2022/07/25 07:26:15;;;;;;;15.30;10.45;;;23.40;99.90;;;;;;5023569;28;20107;-77
2022/07/25 07:28:41;;;;;;;12.82;10.70;;;23.40;99.90;;;;;;5014322;28;20494;-80
2022/07/25 07:31:07;;;;;;;12.18;10.00;;;23.40;99.90;;;;;;5011843;28;20052;-77
2022/07/25 07:33:32;;;;;;;13.43;10.82;;;23.30;99.90;;;;;;5026352;28;20061;-78
2022/07/25 07:35:59;;;;;;;13.23;9.90;;;23.30;99.90;;;;;;5024329;28;20037;-79
2022/07/25 07:38:25;;;;;;;14.80;10.55;;;23.20;99.90;;;;;;5031712;28;20452;-78
2022/07/25 07:40:52;;;;;;;13.00;11.15;;;23.20;99.90;;;;;;5022383;28;20049;-78
2022/07/25 07:43:19;;;;;;;14.73;10.50;;;23.20;99.90;;;;;;5018051;28;20034;-78
2022/07/25 07:45:45;;;;;;;18.35;11.35;;;23.20;99.90;;;;;;5029541;28;20512;-77
2022/07/25 07:48:12;;;;;;;12.95;10.55;;;23.20;99.90;;;;;;5005395;28;20044;-77
2022/07/25 07:50:41;;;;;;;12.63;10.15;;;23.30;99.90;;;;;;5010814;28;20400;-78
2022/07/25 07:53:07;;;;;;;13.70;9.98;;;23.30;99.90;;;;;;5007131;28;20053;-78
2022/07/25 07:55:45;;;;;;;16.23;11.30;;;23.40;99.90;;;;;;5027188;28;20045;-79
2022/07/25 07:58:14;;;;;;;12.73;10.30;;;23.50;99.90;;;;;;5002421;28;20037;-78
2022/07/25 08:00:40;;;;;;;10.40;8.57;;;23.60;99.90;;;;;;5023261;28;20120;-77
2022/07/25 08:03:07;;;;;;;14.80;10.02;;;23.70;99.90;;;;;;5019251;28;20402;-81
2022/07/25 08:05:39;;;;;;;13.55;9.02;;;23.70;99.90;;;;;;5028672;28;20029;-79
2022/07/25 08:08:10;;;;;;;12.50;9.52;;;23.70;99.90;;;;;;5022689;28;20045;-80
2022/07/25 08:10:38;;;;;;;12.02;8.88;;;23.70;99.90;;;;;;5017577;28;20055;-81
2022/07/25 08:13:14;;;;;;;12.30;9.00;;;23.70;99.90;;;;;;5023946;28;20049;-79
2022/07/25 08:15:40;;;;;;;10.95;8.85;;;23.60;99.90;;;;;;5032106;28;20091;-80
2022/07/25 08:18:06;;;;;;;12.43;8.57;;;23.60;99.90;;;;;;5029551;28;20045;-80
2022/07/25 08:20:31;;;;;;;9.40;7.20;;;23.70;99.90;;;;;;5025821;28;20045;-80
2022/07/25 08:22:57;;;;;;;10.85;7.35;;;23.70;99.90;;;;;;5033630;28;20049;-79
2022/07/25 08:25:22;;;;;;;11.75;7.93;;;23.70;99.90;;;;;;5018460;28;20045;-80
2022/07/25 08:27:48;;;;;;;10.18;7.35;;;23.80;99.90;;;;;;5030876;28;20048;-80
2022/07/25 08:30:15;;;;;;;9.35;6.78;;;23.80;99.90;;;;;;5030800;28;20341;-80
2022/07/25 08:32:56;;;;;;;10.82;7.03;;;23.80;99.90;;;;;;5032382;28;20029;-80
2022/07/25 08:35:23;;;;;;;8.68;6.13;;;23.90;99.90;;;;;;5032262;28;20034;-80
2022/07/25 08:37:50;;;;;;;7.75;6.47;;;24.00;99.90;;;;;;5024302;28;20568;-80
2022/07/25 08:40:18;;;;;;;7.40;5.70;;;24.00;99.90;;;;;;5029531;28;20101;-77
2022/07/25 08:42:44;;;;;;;8.75;5.10;;;23.90;99.90;;;;;;5029553;28;20045;-78
2022/07/25 08:45:18;;;;;;;8.48;5.75;;;23.80;99.90;;;;;;5026629;28;20042;-77
2022/07/25 08:47:45;;;;;;;7.93;5.60;;;23.80;99.90;;;;;;5037537;28;20127;-77
2022/07/25 08:50:14;;;;;;;10.25;5.55;;;23.70;99.90;;;;;;5020947;28;20046;-77
2022/07/25 08:52:43;;;;;;;8.05;4.90;;;23.60;99.90;;;;;;5016953;28;20042;-77
2022/07/25 08:55:13;;;;;;;7.53;4.35;;;23.60;99.90;;;;;;5023770;28;20052;-76
2022/07/25 08:57:42;;;;;;;6.10;4.30;;;23.60;99.90;;;;;;5016245;28;20087;-79
2022/07/25 09:00:11;;;;;;;6.55;3.88;;;23.60;99.90;;;;;;4998416;28;20495;-77
2022/07/25 09:02:37;;;;;;;4.10;3.00;;;23.70;99.90;;;;;;5021397;28;20037;-78
2022/07/25 09:05:04;;;;;;;4.07;2.95;;;23.70;99.90;;;;;;5022884;28;20245;-78
2022/07/25 09:07:35;;;;;;;5.45;3.30;;;23.70;99.90;;;;;;5023888;28;20490;-78
2022/07/25 09:10:17;;;;;;;7.00;3.33;;;23.70;99.90;;;;;;5022631;28;20490;-77
2022/07/25 09:12:58;;;;;;;5.00;2.60;;;23.80;99.90;;;;;;5035540;28;20072;-76
2022/07/25 09:15:29;;;;;;;5.05;2.50;;;23.80;99.90;;;;;;5027130;28;20117;-76
2022/07/25 09:17:57;;;;;;;4.35;2.63;;;23.80;99.90;;;;;;5022483;28;20044;-76
2022/07/25 09:20:35;;;;;;;2.88;2.25;;;23.90;99.80;;;;;;5022232;28;20125;-77
2022/07/25 09:23:00;;;;;;;4.70;2.25;;;24.00;99.50;;;;;;5028425;28;20064;-76
2022/07/25 09:25:30;;;;;;;6.20;2.63;;;24.00;99.20;;;;;;5028252;28;20506;-77
2022/07/25 09:28:11;;;;;;;4.75;2.60;;;24.00;99.00;;;;;;5029772;28;20033;-77
2022/07/25 09:30:38;;;;;;;7.93;2.70;;;24.10;98.90;;;;;;5026864;28;20041;-77
2022/07/25 09:33:04;;;;;;;5.40;2.67;;;24.30;99.20;;;;;;5031678;28;20395;-77
2022/07/25 09:35:32;;;;;;;4.72;2.92;;;24.60;99.00;;;;;;5017153;28;20120;-77
2022/07/25 09:38:13;;;;;;;3.00;2.35;;;24.80;98.90;;;;;;5013888;28;20081;-77
2022/07/25 09:40:38;;;;;;;3.90;2.40;;;24.90;98.30;;;;;;5025835;28;20657;-77
2022/07/25 09:43:05;;;;;;;3.85;2.38;;;25.00;98.50;;;;;;5027256;28;20124;-76
2022/07/25 09:45:30;;;;;;;6.10;2.70;;;25.00;98.40;;;;;;5031868;28;20128;-77
2022/07/25 09:48:02;;;;;;;4.53;2.20;;;24.90;98.20;;;;;;5020565;28;20136;-76
2022/07/25 09:50:30;;;;;;;3.30;2.65;;;24.80;98.10;;;;;;5000463;28;20104;-77
2022/07/25 09:53:01;;;;;;;5.15;2.80;;;24.60;98.00;;;;;;5011041;28;20063;-77
2022/07/25 09:55:27;;;;;;;5.53;2.50;;;24.40;98.60;;;;;;5027057;28;20037;-77
2022/07/25 09:57:53;;;;;;;5.88;2.80;;;24.20;99.40;;;;;;5022432;28;20069;-76
2022/07/25 10:00:22;;;;;;;5.72;2.85;;;24.00;99.90;;;;;;5023638;28;20041;-77
2022/07/25 10:02:51;;;;;;;7.13;2.78;;;23.80;99.90;;;;;;5021426;28;20045;-76
2022/07/25 10:05:22;;;;;;;4.60;2.40;;;23.80;99.90;;;;;;5015305;28;20068;-77
2022/07/25 10:07:52;;;;;;;;;;;23.80;99.90;;;;;;5026837;28;20107;-77
2022/07/25 10:10:23;;;;;;;4.28;2.20;;;24.00;99.90;;;;;;5013433;28;19925;-77
2022/07/25 10:13:14;;;;;;;3.40;1.90;;;24.30;99.90;;;;;;5019174;28;20468;-77
2022/07/25 10:15:44;;;;;;;4.80;2.00;;;24.50;99.90;;;;;;5027913;28;20045;-77
2022/07/25 10:18:09;;;;;;;3.78;2.10;;;24.80;99.90;;;;;;5026615;28;20045;-77
2022/07/25 10:20:35;;;;;;;4.68;2.00;;;24.90;99.90;;;;;;5016234;28;20556;-77
2022/07/25 10:23:01;;;;;;;3.17;2.00;;;25.10;99.90;;;;;;5027282;28;20125;-76
2022/07/25 10:25:28;;;;;;;3.25;2.08;;;25.20;99.90;;;;;;5018410;28;20034;-76
2022/07/25 10:28:08;;;;;;;2.55;1.90;;;25.20;99.90;;;;;;5015215;28;20518;-76
2022/07/25 10:30:36;;;;;;;3.28;1.70;;;25.10;99.90;;;;;;5035894;28;20083;-76
2022/07/25 10:33:14;;;;;;;3.10;1.67;;;25.00;99.90;;;;;;5018443;28;20239;-76
2022/07/25 10:35:40;;;;;;;6.07;2.00;;;24.90;99.90;;;;;;5008657;28;20103;-76
2022/07/25 10:38:07;;;;;;;2.10;1.45;;;24.80;99.90;;;;;;5000325;28;20037;-77
2022/07/25 10:40:37;;;;;;;9.07;2.17;;;24.60;99.90;;;;;;5028257;28;20033;-76
2022/07/25 10:43:06;;;;;;;4.18;1.83;;;24.50;99.90;;;;;;5026253;28;20061;-76
2022/07/25 10:45:51;;;;;;;2.58;1.50;;;24.40;99.90;;;;;;5021345;28;20045;-76
2022/07/25 10:48:25;;;;;;;3.78;1.80;;;24.40;99.90;;;;;;5019314;28;20508;-78
2022/07/25 10:50:51;;;;;;;2.95;1.73;;;24.40;99.90;;;;;;5030241;28;20053;-78
2022/07/25 10:53:27;;;;;;;6.25;1.98;;;24.40;99.90;;;;;;5010128;28;20391;-78
2022/07/25 10:56:02;;;;;;;7.03;1.90;;;24.40;99.90;;;;;;5020737;28;20041;-78
2022/07/25 10:58:44;;;;;;;3.25;1.60;;;24.40;99.90;;;;;;5025020;28;20048;-78
2022/07/25 11:01:12;;;;;;;5.20;2.20;;;24.40;99.90;;;;;;4986849;28;1095637;-77
2022/07/25 11:03:39;;;;;;;5.05;1.85;;;24.50;99.90;;;;;;5025901;28;20045;-78
2022/07/25 11:06:07;;;;;;;4.75;2.45;;;24.60;99.90;;;;;;5009803;28;20175;-78
2022/07/25 11:08:34;;;;;;;5.28;2.45;;;24.60;99.90;;;;;;5021873;28;20044;-78
2022/07/25 11:11:00;;;;;;;6.43;2.42;;;24.60;99.90;;;;;;5017888;28;20076;-77
2022/07/25 11:13:26;;;;;;;9.43;2.90;;;24.70;99.90;;;;;;5014563;28;20062;-77
2022/07/25 11:15:56;;;;;;;5.95;2.53;;;24.80;99.90;;;;;;5020734;28;20518;-77
2022/07/25 11:18:37;;;;;;;7.35;2.40;;;25.00;99.90;;;;;;5025916;28;20037;-77
2022/07/25 11:21:05;;;;;;;7.30;2.55;;;25.30;99.90;;;;;;5048416;28;20045;-77
2022/07/25 11:23:31;;;;;;;7.30;2.40;;;25.40;99.90;;;;;;5033180;28;20029;-78
2022/07/25 11:26:05;;;;;;;6.80;2.80;;;25.40;99.90;;;;;;5016955;28;20037;-78
2022/07/25 11:28:46;;;;;;;8.95;2.78;;;25.30;99.90;;;;;;5022304;28;20029;-79
2022/07/25 11:31:13;;;;;;;6.65;2.50;;;25.30;99.90;;;;;;5022908;28;20076;-79
2022/07/25 11:33:41;;;;;;;4.10;1.95;;;25.20;99.90;;;;;;5015281;28;20056;-79
2022/07/25 11:36:09;;;;;;;7.05;2.30;;;25.10;99.90;;;;;;5039597;28;20110;-78
2022/07/25 11:38:36;;;;;;;7.63;2.22;;;25.00;99.90;;;;;;5032720;28;20045;-77
2022/07/25 11:41:02;;;;;;;4.28;2.28;;;25.00;99.90;;;;;;5029169;28;20038;-77
2022/07/25 11:43:28;;;;;;;5.32;2.35;;;24.90;99.90;;;;;;5030628;28;20124;-77
2022/07/25 11:46:00;;;;;;;6.18;2.47;;;25.00;99.90;;;;;;5037667;28;20175;-77
2022/07/25 11:48:31;;;;;;;7.78;2.38;;;25.10;99.90;;;;;;5026821;28;20037;-76
2022/07/25 11:50:56;;;;;;;8.25;2.70;;;25.10;99.90;;;;;;5017297;28;20171;-76
2022/07/25 11:53:24;;;;;;;8.15;2.65;;;25.10;99.90;;;;;;5017244;28;20115;-75
2022/07/25 11:55:50;;;;;;;5.75;2.22;;;25.20;99.90;;;;;;5017717;28;20241;-76
2022/07/25 11:58:16;;;;;;;7.80;2.83;;;25.30;99.90;;;;;;5024435;28;20166;-79
2022/07/25 12:00:44;;;;;;;6.47;2.60;;;25.30;99.90;;;;;;5018335;28;20042;-74
2022/07/25 12:03:13;;;;;;;6.90;2.75;;;25.20;99.90;;;;;;5026544;28;20048;-78
2022/07/25 12:05:40;;;;;;;7.63;3.08;;;25.00;99.90;;;;;;5020465;28;20038;-76
2022/07/25 12:08:16;;;;;;;6.28;2.67;;;24.80;99.90;;;;;;5004237;28;20466;-76
2022/07/25 12:10:44;;;;;;;8.50;2.50;;;24.80;99.90;;;;;;5035681;28;20049;-74
2022/07/25 12:13:20;;;;;;;5.50;2.60;;;24.80;99.90;;;;;;5010566;28;20045;-77
2022/07/25 12:15:46;;;;;;;7.40;2.50;;;24.80;99.90;;;;;;5020356;28;20039;-73
2022/07/25 12:18:11;;;;;;;6.05;2.20;;;24.80;99.90;;;;;;5018305;28;20136;-74
2022/07/25 12:20:39;;;;;;;5.50;1.88;;;24.80;99.90;;;;;;5024914;28;20524;-75
2022/07/25 12:23:08;;;;;;;5.60;1.90;;;24.70;99.90;;;;;;5032284;28;20059;-77
2022/07/25 12:25:40;;;;;;;6.35;2.20;;;24.70;99.80;;;;;;5033304;28;20631;-75
2022/07/25 12:28:06;;;;;;;;;;;24.80;99.50;;;;;;5029324;28;20091;-76
2022/07/25 12:30:33;;;;;;;7.30;2.25;;;24.90;99.50;;;;;;5023954;28;19917;-75
2022/07/25 12:32:59;;;;;;;7.68;2.35;;;25.10;99.70;;;;;;5033333;28;20046;-75
2022/07/25 12:35:25;;;;;;;4.65;2.00;;;25.20;99.00;;;;;;5017438;28;20038;-76
2022/07/25 12:37:52;;;;;;;4.90;2.00;;;25.20;98.90;;;;;;5011052;28;20034;-75
2022/07/25 12:40:18;;;;;;;5.40;2.05;;;25.30;99.00;;;;;;5020521;28;20132;-75